sensor_id;sensor_type;location;lat;lon;timestamp;pressure;altitude;pressure_sealevel;temperature;humidity
44027;BME280;29696;55.698;37.460;2022-12-18T00:01:37;98999.47;;;-4.78;91.13
44027;BME280;29696;55.698;37.460;2022-12-18T00:04:04;98995.28;;;-4.83;91.14
44027;BME280;29696;55.698;37.460;2022-12-18T00:06:30;98982.41;;;-4.83;91.60
44027;BME280;29696;55.698;37.460;2022-12-18T00:08:58;98989.91;;;-4.76;91.43
44027;BME280;29696;55.698;37.460;2022-12-18T00:11:26;98980.34;;;-4.73;91.67
44027;BME280;29696;55.698;37.460;2022-12-18T00:13:53;98972.47;;;-4.70;91.62
44027;BME280;29696;55.698;37.460;2022-12-18T00:16:20;98973.34;;;-4.69;91.76
44027;BME280;29696;55.698;37.460;2022-12-18T00:18:47;98973.28;;;-4.68;91.49
44027;BME280;29696;55.698;37.460;2022-12-18T00:21:13;98969.06;;;-4.70;91.53
44027;BME280;29696;55.698;37.460;2022-12-18T00:23:41;98965.53;;;-4.68;91.58
44027;BME280;29696;55.698;37.460;2022-12-18T00:26:09;98958.66;;;-4.67;91.50
44027;BME280;29696;55.698;37.460;2022-12-18T00:28:36;98955.25;;;-4.68;91.44
44027;BME280;29696;55.698;37.460;2022-12-18T00:33:48;98945.75;;;-4.67;91.58
44027;BME280;29696;55.698;37.460;2022-12-18T00:36:15;98944.94;;;-4.68;91.38
44027;BME280;29696;55.698;37.460;2022-12-18T00:38:43;98941.31;;;-4.64;91.46
44027;BME280;29696;55.698;37.460;2022-12-18T00:41:09;98935.34;;;-4.64;91.44
44027;BME280;29696;55.698;37.460;2022-12-18T00:43:36;98942.91;;;-4.60;91.47
44027;BME280;29696;55.698;37.460;2022-12-18T00:46:02;98942.06;;;-4.60;91.51
44027;BME280;29696;55.698;37.460;2022-12-18T00:48:28;98945.59;;;-4.63;91.34
44027;BME280;29696;55.698;37.460;2022-12-18T00:50:55;98927.69;;;-4.66;91.53
44027;BME280;29696;55.698;37.460;2022-12-18T00:53:21;98924.41;;;-4.71;91.46
44027;BME280;29696;55.698;37.460;2022-12-18T00:55:47;98922.03;;;-4.75;91.22
44027;BME280;29696;55.698;37.460;2022-12-18T00:58:14;98908.34;;;-4.77;91.42
44027;BME280;29696;55.698;37.460;2022-12-18T01:00:41;98904.97;;;-4.79;91.40
44027;BME280;29696;55.698;37.460;2022-12-18T01:03:12;98907.72;;;-4.84;91.19
44027;BME280;29696;55.698;37.460;2022-12-18T01:05:40;98897.53;;;-4.87;91.33
44027;BME280;29696;55.698;37.460;2022-12-18T01:08:06;98900.13;;;-4.87;91.19
44027;BME280;29696;55.698;37.460;2022-12-18T01:10:32;98893.16;;;-4.85;91.27
44027;BME280;29696;55.698;37.460;2022-12-18T01:12:58;98888.91;;;-4.86;91.40
44027;BME280;29696;55.698;37.460;2022-12-18T01:15:24;98887.88;;;-4.82;91.28
44027;BME280;29696;55.698;37.460;2022-12-18T01:17:52;98884.47;;;-4.83;91.25
44027;BME280;29696;55.698;37.460;2022-12-18T01:20:18;98862.41;;;-4.90;91.24
44027;BME280;29696;55.698;37.460;2022-12-18T01:22:44;98889.16;;;-4.94;91.06
44027;BME280;29696;55.698;37.460;2022-12-18T01:25:10;98877.25;;;-4.96;90.89
44027;BME280;29696;55.698;37.460;2022-12-18T01:27:36;98885.00;;;-4.96;91.13
44027;BME280;29696;55.698;37.460;2022-12-18T01:30:03;98888.28;;;-4.93;91.24
44027;BME280;29696;55.698;37.460;2022-12-18T01:32:30;98892.53;;;-4.92;91.24
44027;BME280;29696;55.698;37.460;2022-12-18T01:34:56;98902.81;;;-4.90;91.41
44027;BME280;29696;55.698;37.460;2022-12-18T01:37:22;98884.75;;;-4.90;91.57
44027;BME280;29696;55.698;37.460;2022-12-18T01:39:48;98890.69;;;-4.88;91.77
44027;BME280;29696;55.698;37.460;2022-12-18T01:42:15;98877.69;;;-4.85;91.58
44027;BME280;29696;55.698;37.460;2022-12-18T01:44:50;98887.94;;;-4.84;91.71
44027;BME280;29696;55.698;37.460;2022-12-18T01:47:30;98881.06;;;-4.83;91.57
44027;BME280;29696;55.698;37.460;2022-12-18T01:49:58;98888.09;;;-4.88;91.57
44027;BME280;29696;55.698;37.460;2022-12-18T01:52:28;98895.00;;;-4.89;91.53
44027;BME280;29696;55.698;37.460;2022-12-18T01:54:56;98884.69;;;-4.89;91.68
44027;BME280;29696;55.698;37.460;2022-12-18T01:57:23;98881.22;;;-4.88;91.78
44027;BME280;29696;55.698;37.460;2022-12-18T01:59:50;98878.59;;;-4.86;91.82
44027;BME280;29696;55.698;37.460;2022-12-18T02:02:18;98873.53;;;-4.89;91.76
44027;BME280;29696;55.698;37.460;2022-12-18T02:04:45;98877.97;;;-4.93;91.77
44027;BME280;29696;55.698;37.460;2022-12-18T02:07:16;98872.00;;;-4.93;91.69
44027;BME280;29696;55.698;37.460;2022-12-18T02:12:42;98883.97;;;-4.92;91.87
44027;BME280;29696;55.698;37.460;2022-12-18T02:17:58;98894.59;;;-5.01;91.77
44027;BME280;29696;55.698;37.460;2022-12-18T02:20:33;98890.28;;;-5.01;91.99
44027;BME280;29696;55.698;37.460;2022-12-18T02:23:20;98908.41;;;-5.02;92.14
44027;BME280;29696;55.698;37.460;2022-12-18T02:28:37;98877.66;;;-5.09;92.07
44027;BME280;29696;55.698;37.460;2022-12-18T02:31:06;98878.66;;;-5.11;92.37
44027;BME280;29696;55.698;37.460;2022-12-18T02:33:35;98877.78;;;-5.12;92.17
44027;BME280;29696;55.698;37.460;2022-12-18T02:36:02;98887.25;;;-5.12;92.13
44027;BME280;29696;55.698;37.460;2022-12-18T02:38:30;98873.50;;;-5.11;92.27
44027;BME280;29696;55.698;37.460;2022-12-18T02:41:07;98874.34;;;-5.11;92.47
44027;BME280;29696;55.698;37.460;2022-12-18T02:43:35;98881.25;;;-5.13;92.33
44027;BME280;29696;55.698;37.460;2022-12-18T02:46:20;98891.75;;;-5.17;92.41
44027;BME280;29696;55.698;37.460;2022-12-18T02:48:48;98893.53;;;-5.19;92.51
44027;BME280;29696;55.698;37.460;2022-12-18T02:51:21;98896.16;;;-5.21;92.65
44027;BME280;29696;55.698;37.460;2022-12-18T02:53:51;98896.16;;;-5.21;92.74
44027;BME280;29696;55.698;37.460;2022-12-18T02:56:30;98892.84;;;-5.24;92.89
44027;BME280;29696;55.698;37.460;2022-12-18T02:59:05;98885.94;;;-5.24;92.90
44027;BME280;29696;55.698;37.460;2022-12-18T03:01:51;98880.97;;;-5.29;92.95
44027;BME280;29696;55.698;37.460;2022-12-18T03:07:18;98860.47;;;-5.32;93.11
44027;BME280;29696;55.698;37.460;2022-12-18T03:09:48;98870.72;;;-5.30;92.99
44027;BME280;29696;55.698;37.460;2022-12-18T03:12:18;98874.19;;;-5.31;93.15
44027;BME280;29696;55.698;37.460;2022-12-18T03:15:22;98875.94;;;-5.32;93.15
44027;BME280;29696;55.698;37.460;2022-12-18T03:17:41;98873.28;;;-5.30;93.02
44027;BME280;29696;55.698;37.460;2022-12-18T03:20:12;98872.34;;;-5.28;93.22
44027;BME280;29696;55.698;37.460;2022-12-18T03:22:39;98873.19;;;-5.27;93.24
44027;BME280;29696;55.698;37.460;2022-12-18T03:25:09;98891.09;;;-5.24;93.13
44027;BME280;29696;55.698;37.460;2022-12-18T03:27:37;98895.31;;;-5.21;93.22
44027;BME280;29696;55.698;37.460;2022-12-18T03:30:08;98884.16;;;-5.22;93.22
44027;BME280;29696;55.698;37.460;2022-12-18T03:35:29;98892.91;;;-5.26;92.85
44027;BME280;29696;55.698;37.460;2022-12-18T03:37:57;98876.66;;;-5.28;92.90
44027;BME280;29696;55.698;37.460;2022-12-18T03:40:59;98868.22;;;-5.32;92.76
44027;BME280;29696;55.698;37.460;2022-12-18T03:46:05;98874.44;;;-5.39;92.78
44027;BME280;29696;55.698;37.460;2022-12-18T03:48:34;98864.16;;;-5.39;93.03
44027;BME280;29696;55.698;37.460;2022-12-18T03:51:10;98877.09;;;-5.40;92.90
44027;BME280;29696;55.698;37.460;2022-12-18T03:56:40;98899.34;;;-5.39;92.98
44027;BME280;29696;55.698;37.460;2022-12-18T03:59:09;98886.66;;;-5.44;93.00
44027;BME280;29696;55.698;37.460;2022-12-18T04:01:39;98884.13;;;-5.45;93.07
44027;BME280;29696;55.698;37.460;2022-12-18T04:04:07;98883.31;;;-5.47;93.12
44027;BME280;29696;55.698;37.460;2022-12-18T04:06:37;98878.13;;;-5.46;93.08
44027;BME280;29696;55.698;37.460;2022-12-18T04:09:04;98884.91;;;-5.43;93.32
44027;BME280;29696;55.698;37.460;2022-12-18T04:11:34;98897.69;;;-5.40;93.27
44027;BME280;29696;55.698;37.460;2022-12-18T04:14:02;98912.03;;;-5.33;93.28
44027;BME280;29696;55.698;37.460;2022-12-18T04:16:30;98928.16;;;-5.28;93.47
44027;BME280;29696;55.698;37.460;2022-12-18T04:19:00;98940.94;;;-5.25;93.43
44027;BME280;29696;55.698;37.460;2022-12-18T04:21:28;98934.78;;;-5.21;93.56
44027;BME280;29696;55.698;37.460;2022-12-18T04:23:54;98931.31;;;-5.20;93.37
44027;BME280;29696;55.698;37.460;2022-12-18T04:26:22;98920.19;;;-5.20;93.37
44027;BME280;29696;55.698;37.460;2022-12-18T04:29:11;98934.00;;;-5.23;93.25
44027;BME280;29696;55.698;37.460;2022-12-18T04:31:37;98951.19;;;-5.23;93.31
44027;BME280;29696;55.698;37.460;2022-12-18T04:34:04;98957.22;;;-5.24;93.10
44027;BME280;29696;55.698;37.460;2022-12-18T04:36:36;98953.78;;;-5.23;93.28
44027;BME280;29696;55.698;37.460;2022-12-18T04:39:03;98954.66;;;-5.24;93.08
44027;BME280;29696;55.698;37.460;2022-12-18T04:41:30;98959.97;;;-5.29;92.90
44027;BME280;29696;55.698;37.460;2022-12-18T04:43:57;98969.47;;;-5.31;92.97
44027;BME280;29696;55.698;37.460;2022-12-18T04:46:23;98960.84;;;-5.30;93.06
44027;BME280;29696;55.698;37.460;2022-12-18T04:48:49;98963.53;;;-5.33;92.85
44027;BME280;29696;55.698;37.460;2022-12-18T04:51:15;98961.78;;;-5.33;92.95
44027;BME280;29696;55.698;37.460;2022-12-18T04:53:41;98956.75;;;-5.36;92.87
44027;BME280;29696;55.698;37.460;2022-12-18T04:56:11;98962.75;;;-5.35;92.95
44027;BME280;29696;55.698;37.460;2022-12-18T04:58:38;98961.22;;;-5.41;92.64
44027;BME280;29696;55.698;37.460;2022-12-18T05:01:04;98972.47;;;-5.43;92.75
44027;BME280;29696;55.698;37.460;2022-12-18T05:03:30;98959.72;;;-5.48;92.67
44027;BME280;29696;55.698;37.460;2022-12-18T05:05:57;98965.91;;;-5.54;92.69
44027;BME280;29696;55.698;37.460;2022-12-18T05:08:23;98977.22;;;-5.58;92.66
44027;BME280;29696;55.698;37.460;2022-12-18T05:10:49;98971.16;;;-5.57;92.61
44027;BME280;29696;55.698;37.460;2022-12-18T05:13:15;98978.78;;;-5.54;92.78
44027;BME280;29696;55.698;37.460;2022-12-18T05:15:41;98975.38;;;-5.54;92.76
44027;BME280;29696;55.698;37.460;2022-12-18T05:18:07;98983.19;;;-5.57;92.59
44027;BME280;29696;55.698;37.460;2022-12-18T05:20:33;98989.25;;;-5.58;92.68
44027;BME280;29696;55.698;37.460;2022-12-18T05:22:59;98981.53;;;-5.58;92.60
44027;BME280;29696;55.698;37.460;2022-12-18T05:25:25;99001.38;;;-5.62;92.49
44027;BME280;29696;55.698;37.460;2022-12-18T05:27:51;99003.06;;;-5.61;92.51
44027;BME280;29696;55.698;37.460;2022-12-18T05:30:17;99005.59;;;-5.59;92.57
44027;BME280;29696;55.698;37.460;2022-12-18T05:32:43;99016.66;;;-5.57;92.64
44027;BME280;29696;55.698;37.460;2022-12-18T05:35:10;99024.38;;;-5.57;92.38
44027;BME280;29696;55.698;37.460;2022-12-18T05:37:36;99030.38;;;-5.57;92.37
44027;BME280;29696;55.698;37.460;2022-12-18T05:40:03;99027.75;;;-5.55;92.41
44027;BME280;29696;55.698;37.460;2022-12-18T05:42:29;99028.56;;;-5.53;92.60
44027;BME280;29696;55.698;37.460;2022-12-18T05:44:55;99031.06;;;-5.52;92.54
44027;BME280;29696;55.698;37.460;2022-12-18T05:47:21;99040.47;;;-5.51;92.56
44027;BME280;29696;55.698;37.460;2022-12-18T05:49:47;99037.03;;;-5.49;92.57
44027;BME280;29696;55.698;37.460;2022-12-18T05:52:13;99029.25;;;-5.48;92.57
44027;BME280;29696;55.698;37.460;2022-12-18T05:54:39;99051.56;;;-5.48;92.39
44027;BME280;29696;55.698;37.460;2022-12-18T05:57:05;99043.91;;;-5.50;92.39
44027;BME280;29696;55.698;37.460;2022-12-18T05:59:31;99043.91;;;-5.50;92.31
44027;BME280;29696;55.698;37.460;2022-12-18T06:01:57;99050.69;;;-5.47;92.42
44027;BME280;29696;55.698;37.460;2022-12-18T06:04:23;99045.50;;;-5.46;92.24
44027;BME280;29696;55.698;37.460;2022-12-18T06:06:49;99055.72;;;-5.44;92.13
44027;BME280;29696;55.698;37.460;2022-12-18T06:09:15;99066.09;;;-5.46;92.29
44027;BME280;29696;55.698;37.460;2022-12-18T06:11:41;99068.78;;;-5.51;92.33
44027;BME280;29696;55.698;37.460;2022-12-18T06:14:08;99070.63;;;-5.54;92.17
44027;BME280;29696;55.698;37.460;2022-12-18T06:16:34;99076.69;;;-5.55;91.96
44027;BME280;29696;55.698;37.460;2022-12-18T06:19:00;99080.09;;;-5.55;92.02
44027;BME280;29696;55.698;37.460;2022-12-18T06:21:27;99088.56;;;-5.51;92.09
44027;BME280;29696;55.698;37.460;2022-12-18T06:23:54;99094.59;;;-5.52;92.08
44027;BME280;29696;55.698;37.460;2022-12-18T06:26:20;99097.13;;;-5.51;92.20
44027;BME280;29696;55.698;37.460;2022-12-18T06:28:46;99098.81;;;-5.49;91.94
44027;BME280;29696;55.698;37.460;2022-12-18T06:31:12;99110.69;;;-5.45;91.92
44027;BME280;29696;55.698;37.460;2022-12-18T06:33:38;99110.59;;;-5.42;92.01
44027;BME280;29696;55.698;37.460;2022-12-18T06:36:05;99114.06;;;-5.43;91.95
44027;BME280;29696;55.698;37.460;2022-12-18T06:38:33;99121.81;;;-5.43;91.84
44027;BME280;29696;55.698;37.460;2022-12-18T06:40:59;99130.28;;;-5.40;92.03
44027;BME280;29696;55.698;37.460;2022-12-18T06:43:25;99136.03;;;-5.32;91.87
44027;BME280;29696;55.698;37.460;2022-12-18T06:45:57;99133.28;;;-5.25;91.73
44027;BME280;29696;55.698;37.460;2022-12-18T06:48:25;99144.41;;;-5.25;91.84
44027;BME280;29696;55.698;37.460;2022-12-18T06:50:51;99148.63;;;-5.22;91.70
44027;BME280;29696;55.698;37.460;2022-12-18T06:53:17;99147.59;;;-5.17;91.66
44027;BME280;29696;55.698;37.460;2022-12-18T06:55:44;99166.41;;;-5.15;91.80
44027;BME280;29696;55.698;37.460;2022-12-18T06:58:10;99173.09;;;-5.09;91.86
44027;BME280;29696;55.698;37.460;2022-12-18T07:00:36;99165.25;;;-5.05;91.85
44027;BME280;29696;55.698;37.460;2022-12-18T07:03:02;99166.81;;;-5.00;91.69
44027;BME280;29696;55.698;37.460;2022-12-18T07:05:28;99165.19;;;-5.03;91.70
44027;BME280;29696;55.698;37.460;2022-12-18T07:07:54;99173.06;;;-5.08;91.54
44027;BME280;29696;55.698;37.460;2022-12-18T07:10:20;99182.53;;;-5.08;91.56
44027;BME280;29696;55.698;37.460;2022-12-18T07:12:46;99181.56;;;-5.06;91.50
44027;BME280;29696;55.698;37.460;2022-12-18T07:15:12;99179.72;;;-5.00;91.42
44027;BME280;29696;55.698;37.460;2022-12-18T07:17:38;99195.16;;;-5.00;91.45
44027;BME280;29696;55.698;37.460;2022-12-18T07:20:04;99204.59;;;-4.99;91.55
44027;BME280;29696;55.698;37.460;2022-12-18T07:22:30;99214.00;;;-4.98;91.27
44027;BME280;29696;55.698;37.460;2022-12-18T07:24:56;99220.00;;;-4.98;91.39
44027;BME280;29696;55.698;37.460;2022-12-18T07:27:22;99218.22;;;-4.96;91.48
44027;BME280;29696;55.698;37.460;2022-12-18T07:29:49;99221.66;;;-4.95;91.32
44027;BME280;29696;55.698;37.460;2022-12-18T07:32:15;99224.16;;;-4.94;91.34
44027;BME280;29696;55.698;37.460;2022-12-18T07:34:41;99218.91;;;-4.91;91.27
44027;BME280;29696;55.698;37.460;2022-12-18T07:37:07;99217.19;;;-4.90;91.18
44027;BME280;29696;55.698;37.460;2022-12-18T07:39:33;99221.56;;;-4.92;91.36
44027;BME280;29696;55.698;37.460;2022-12-18T07:41:59;99225.06;;;-4.95;91.22
44027;BME280;29696;55.698;37.460;2022-12-18T07:44:43;99224.16;;;-4.94;91.18
44027;BME280;29696;55.698;37.460;2022-12-18T07:47:09;99222.44;;;-4.93;91.14
44027;BME280;29696;55.698;37.460;2022-12-18T07:49:35;99226.75;;;-4.94;90.98
44027;BME280;29696;55.698;37.460;2022-12-18T07:52:02;99219.00;;;-4.94;91.14
44027;BME280;29696;55.698;37.460;2022-12-18T07:54:28;99224.03;;;-4.89;90.83
44027;BME280;29696;55.698;37.460;2022-12-18T07:56:54;99235.88;;;-4.84;91.05
44027;BME280;29696;55.698;37.460;2022-12-18T07:59:20;99234.97;;;-4.83;90.89
44027;BME280;29696;55.698;37.460;2022-12-18T08:01:46;99248.69;;;-4.80;91.04
44027;BME280;29696;55.698;37.460;2022-12-18T08:04:12;99245.16;;;-4.78;90.94
44027;BME280;29696;55.698;37.460;2022-12-18T08:06:38;99250.25;;;-4.76;90.94
44027;BME280;29696;55.698;37.460;2022-12-18T08:09:04;99266.47;;;-4.73;90.96
44027;BME280;29696;55.698;37.460;2022-12-18T08:11:30;99269.84;;;-4.71;90.87
44027;BME280;29696;55.698;37.460;2022-12-18T08:13:57;99270.78;;;-4.73;90.95
44027;BME280;29696;55.698;37.460;2022-12-18T08:16:23;99291.47;;;-4.75;90.78
44027;BME280;29696;55.698;37.460;2022-12-18T08:18:51;99290.56;;;-4.74;90.86
44027;BME280;29696;55.698;37.460;2022-12-18T08:21:18;99298.19;;;-4.69;90.77
44027;BME280;29696;55.698;37.460;2022-12-18T08:23:44;99305.75;;;-4.65;90.74
44027;BME280;29696;55.698;37.460;2022-12-18T08:26:11;99298.91;;;-4.66;90.67
44027;BME280;29696;55.698;37.460;2022-12-18T08:28:37;99303.97;;;-4.63;90.83
44027;BME280;29696;55.698;37.460;2022-12-18T08:31:03;99302.28;;;-4.64;90.77
44027;BME280;29696;55.698;37.460;2022-12-18T08:33:29;99303.19;;;-4.65;90.76
44027;BME280;29696;55.698;37.460;2022-12-18T08:35:55;99314.38;;;-4.66;90.59
44027;BME280;29696;55.698;37.460;2022-12-18T08:38:21;99309.06;;;-4.61;90.59
44027;BME280;29696;55.698;37.460;2022-12-18T08:40:48;99313.28;;;-4.57;90.41
44027;BME280;29696;55.698;37.460;2022-12-18T08:43:14;99303.69;;;-4.53;90.40
44027;BME280;29696;55.698;37.460;2022-12-18T08:45:59;99322.50;;;-4.50;90.66
44027;BME280;29696;55.698;37.460;2022-12-18T08:48:25;99319.91;;;-4.50;90.50
44027;BME280;29696;55.698;37.460;2022-12-18T08:50:57;99317.44;;;-4.53;90.58
44027;BME280;29696;55.698;37.460;2022-12-18T08:53:24;99315.69;;;-4.52;90.55
44027;BME280;29696;55.698;37.460;2022-12-18T08:55:50;99314.75;;;-4.50;90.40
44027;BME280;29696;55.698;37.460;2022-12-18T08:58:16;99304.34;;;-4.47;90.55
44027;BME280;29696;55.698;37.460;2022-12-18T09:00:42;99316.31;;;-4.44;90.52
44027;BME280;29696;55.698;37.460;2022-12-18T09:03:15;99306.78;;;-4.42;90.30
44027;BME280;29696;55.698;37.460;2022-12-18T09:05:41;99317.03;;;-4.41;90.49
44027;BME280;29696;55.698;37.460;2022-12-18T09:08:07;99321.44;;;-4.43;90.41
44027;BME280;29696;55.698;37.460;2022-12-18T09:10:34;99326.59;;;-4.43;90.47
44027;BME280;29696;55.698;37.460;2022-12-18T09:13:00;99326.44;;;-4.38;90.43
44027;BME280;29696;55.698;37.460;2022-12-18T09:15:26;99334.91;;;-4.34;90.27
44027;BME280;29696;55.698;37.460;2022-12-18T09:17:52;99345.03;;;-4.28;90.28
44027;BME280;29696;55.698;37.460;2022-12-18T09:20:18;99354.41;;;-4.26;90.26
44027;BME280;29696;55.698;37.460;2022-12-18T09:22:44;99360.38;;;-4.24;90.31
44027;BME280;29696;55.698;37.460;2022-12-18T09:25:10;99368.13;;;-4.24;90.31
44027;BME280;29696;55.698;37.460;2022-12-18T09:27:36;99370.63;;;-4.22;90.31
44027;BME280;29696;55.698;37.460;2022-12-18T09:30:02;99374.91;;;-4.21;90.26
44027;BME280;29696;55.698;37.460;2022-12-18T09:32:29;99369.69;;;-4.20;90.29
44027;BME280;29696;55.698;37.460;2022-12-18T09:34:55;99375.59;;;-4.16;90.23
44027;BME280;29696;55.698;37.460;2022-12-18T09:37:21;99380.72;;;-4.15;90.46
44027;BME280;29696;55.698;37.460;2022-12-18T09:39:47;99384.94;;;-4.12;90.32
44027;BME280;29696;55.698;37.460;2022-12-18T09:42:17;99396.00;;;-4.08;90.31
44027;BME280;29696;55.698;37.460;2022-12-18T09:44:46;99395.00;;;-4.04;90.37
44027;BME280;29696;55.698;37.460;2022-12-18T09:50:03;99406.84;;;-3.97;90.60
44027;BME280;29696;55.698;37.460;2022-12-18T09:52:30;99393.13;;;-3.99;90.40
44027;BME280;29696;55.698;37.460;2022-12-18T09:55:09;99397.47;;;-4.00;90.40
44027;BME280;29696;55.698;37.460;2022-12-18T09:57:38;99404.47;;;-4.03;90.49
44027;BME280;29696;55.698;37.460;2022-12-18T10:00:15;99403.75;;;-4.08;90.34
44027;BME280;29696;55.698;37.460;2022-12-18T10:02:43;99411.53;;;-4.10;90.27
44027;BME280;29696;55.698;37.460;2022-12-18T10:05:12;99417.59;;;-4.11;90.16
44027;BME280;29696;55.698;37.460;2022-12-18T10:16:16;99419.81;;;-4.27;90.35
44027;BME280;29696;55.698;37.460;2022-12-18T10:21:39;99416.75;;;-4.40;90.27
44027;BME280;29696;55.698;37.460;2022-12-18T10:24:26;99416.78;;;-4.41;90.37
44027;BME280;29696;55.698;37.460;2022-12-18T10:26:55;99416.00;;;-4.43;90.52
44027;BME280;29696;55.698;37.460;2022-12-18T10:29:25;99416.88;;;-4.44;90.57
44027;BME280;29696;55.698;37.460;2022-12-18T10:31:51;99427.22;;;-4.44;90.60
44027;BME280;29696;55.698;37.460;2022-12-18T10:34:17;99428.94;;;-4.45;90.63
44027;BME280;29696;55.698;37.460;2022-12-18T10:36:43;99429.88;;;-4.47;90.88
44027;BME280;29696;55.698;37.460;2022-12-18T10:39:16;99429.97;;;-4.50;90.85
44027;BME280;29696;55.698;37.460;2022-12-18T10:41:43;99428.22;;;-4.50;90.82
44027;BME280;29696;55.698;37.460;2022-12-18T10:44:27;99431.72;;;-4.51;91.15
44027;BME280;29696;55.698;37.460;2022-12-18T10:46:54;99442.13;;;-4.55;91.09
44027;BME280;29696;55.698;37.460;2022-12-18T10:49:29;99452.53;;;-4.59;91.23
44027;BME280;29696;55.698;37.460;2022-12-18T10:54:55;99467.06;;;-4.54;91.07
44027;BME280;29696;55.698;37.460;2022-12-18T11:00:21;99485.13;;;-4.54;91.29
44027;BME280;29696;55.698;37.460;2022-12-18T11:02:48;99491.97;;;-4.55;91.27
44027;BME280;29696;55.698;37.460;2022-12-18T11:05:27;99485.13;;;-4.56;91.40
44027;BME280;29696;55.698;37.460;2022-12-18T11:07:54;99496.44;;;-4.60;91.34
44027;BME280;29696;55.698;37.460;2022-12-18T11:10:21;99496.44;;;-4.60;91.25
44027;BME280;29696;55.698;37.460;2022-12-18T11:12:47;99491.22;;;-4.59;91.43
44027;BME280;29696;55.698;37.460;2022-12-18T11:15:35;99493.03;;;-4.61;91.36
44027;BME280;29696;55.698;37.460;2022-12-18T11:18:00;99487.00;;;-4.61;91.53
44027;BME280;29696;55.698;37.460;2022-12-18T11:20:32;99491.22;;;-4.59;91.46
44027;BME280;29696;55.698;37.460;2022-12-18T11:23:02;99493.81;;;-4.59;91.50
44027;BME280;29696;55.698;37.460;2022-12-18T11:25:29;99492.03;;;-4.56;91.57
44027;BME280;29696;55.698;37.460;2022-12-18T11:27:57;99498.03;;;-4.56;91.59
44027;BME280;29696;55.698;37.460;2022-12-18T11:30:27;99510.84;;;-4.53;91.51
44027;BME280;29696;55.698;37.460;2022-12-18T11:33:06;99502.25;;;-4.53;91.45
44027;BME280;29696;55.698;37.460;2022-12-18T11:38:23;99509.09;;;-4.52;91.48
44027;BME280;29696;55.698;37.460;2022-12-18T11:40:55;99509.34;;;-4.60;91.22
44027;BME280;29696;55.698;37.460;2022-12-18T11:43:27;99510.19;;;-4.61;91.40
44027;BME280;29696;55.698;37.460;2022-12-18T11:45:55;99516.16;;;-4.59;91.40
44027;BME280;29696;55.698;37.460;2022-12-18T11:48:28;99530.75;;;-4.58;91.50
44027;BME280;29696;55.698;37.460;2022-12-18T11:50:58;99525.66;;;-4.60;91.47
44027;BME280;29696;55.698;37.460;2022-12-18T11:53:25;99530.00;;;-4.62;91.38
44027;BME280;29696;55.698;37.460;2022-12-18T11:58:47;99545.47;;;-4.62;91.47
44027;BME280;29696;55.698;37.460;2022-12-18T12:04:06;99560.94;;;-4.62;91.55
44027;BME280;29696;55.698;37.460;2022-12-18T12:07:21;99566.97;;;-4.63;91.56
44027;BME280;29696;55.698;37.460;2022-12-18T12:15:03;99592.78;;;-4.63;91.41
44027;BME280;29696;55.698;37.460;2022-12-18T12:17:37;99595.44;;;-4.67;91.49
44027;BME280;29696;55.698;37.460;2022-12-18T12:22:58;99603.41;;;-4.75;91.50
44027;BME280;29696;55.698;37.460;2022-12-18T12:39:49;99625.63;;;-4.71;91.66
44027;BME280;29696;55.698;37.460;2022-12-18T12:42:18;99644.50;;;-4.69;91.68
44027;BME280;29696;55.698;37.460;2022-12-18T12:45:05;99642.78;;;-4.70;91.79
44027;BME280;29696;55.698;37.460;2022-12-18T12:47:36;99651.50;;;-4.74;91.77
44027;BME280;29696;55.698;37.460;2022-12-18T12:50:05;99656.72;;;-4.77;91.96
44027;BME280;29696;55.698;37.460;2022-12-18T12:52:37;99666.22;;;-4.79;91.76
44027;BME280;29696;55.698;37.460;2022-12-18T12:55:22;99679.09;;;-4.77;91.81
44027;BME280;29696;55.698;37.460;2022-12-18T12:57:57;99667.88;;;-4.76;91.85
44027;BME280;29696;55.698;37.460;2022-12-18T13:00:25;99680.75;;;-4.75;91.89
44027;BME280;29696;55.698;37.460;2022-12-18T13:03:56;99672.97;;;-4.73;91.78
44027;BME280;29696;55.698;37.460;2022-12-18T13:05:56;99697.00;;;-4.73;91.98
44027;BME280;29696;55.698;37.460;2022-12-18T13:08:28;99699.56;;;-4.73;91.83
44027;BME280;29696;55.698;37.460;2022-12-18T13:10:55;99696.09;;;-4.70;92.09
44027;BME280;29696;55.698;37.460;2022-12-18T13:13:50;99704.66;;;-4.70;92.04
44027;BME280;29696;55.698;37.460;2022-12-18T13:16:18;99712.44;;;-4.71;92.09
44027;BME280;29696;55.698;37.460;2022-12-18T13:18:52;99715.88;;;-4.71;92.05
44027;BME280;29696;55.698;37.460;2022-12-18T13:21:29;99723.53;;;-4.68;92.00
44027;BME280;29696;55.698;37.460;2022-12-18T13:23:56;99733.84;;;-4.68;92.29
44027;BME280;29696;55.698;37.460;2022-12-18T13:29:09;99734.75;;;-4.69;92.08
44027;BME280;29696;55.698;37.460;2022-12-18T13:34:28;99743.34;;;-4.70;92.15
44027;BME280;29696;55.698;37.460;2022-12-18T13:36:56;99757.94;;;-4.69;92.13
44027;BME280;29696;55.698;37.460;2022-12-18T13:39:31;99755.28;;;-4.66;92.32
44027;BME280;29696;55.698;37.460;2022-12-18T13:47:56;99769.56;;;-4.52;92.38
44027;BME280;29696;55.698;37.460;2022-12-18T13:50:25;99787.63;;;-4.52;92.50
44027;BME280;29696;55.698;37.460;2022-12-18T13:52:51;99791.94;;;-4.51;92.58
44027;BME280;29696;55.698;37.460;2022-12-18T13:55:18;99789.28;;;-4.50;92.49
44027;BME280;29696;55.698;37.460;2022-12-18T13:57:45;99790.06;;;-4.46;92.47
44027;BME280;29696;55.698;37.460;2022-12-18T14:00:29;99800.31;;;-4.43;92.57
44027;BME280;29696;55.698;37.460;2022-12-18T14:02:55;99808.09;;;-4.45;92.51
44027;BME280;29696;55.698;37.460;2022-12-18T14:08:09;99809.16;;;-4.53;92.41
44027;BME280;29696;55.698;37.460;2022-12-18T14:10:40;99810.91;;;-4.55;92.47
44027;BME280;29696;55.698;37.460;2022-12-18T14:13:08;99826.53;;;-4.62;92.45
44027;BME280;29696;55.698;37.460;2022-12-18T14:15:41;99834.34;;;-4.65;92.57
44027;BME280;29696;55.698;37.460;2022-12-18T14:21:02;99850.91;;;-4.75;92.42
44027;BME280;29696;55.698;37.460;2022-12-18T14:26:32;99847.50;;;-4.77;92.53
44027;BME280;29696;55.698;37.460;2022-12-18T14:28:59;99851.81;;;-4.79;92.49
44027;BME280;29696;55.698;37.460;2022-12-18T14:31:29;99858.72;;;-4.79;92.61
44027;BME280;29696;55.698;37.460;2022-12-18T14:33:56;99868.16;;;-4.78;92.63